This is the latest recevied weather packets stored in our database for station/object EA1EXV-11. If no packets are shown the sender has not sent any weather packets the latest 10 day(s).
| Time | Temp. | Humidity | Pressure | Rain* | Wind** | Luminosity | Snow |
|---|---|---|---|---|---|---|---|
| 1777933209 | 10° C | 77% | 1017.8 hPa | - | - | - | - |
| 1777932309 | 10° C | 76% | 1017.8 hPa | - | - | - | - |
| 1777931409 | 10.56° C | 76% | 1017.6 hPa | - | - | - | - |
| 1777930509 | 10.56° C | 75% | 1017.7 hPa | - | - | - | - |
| 1777929608 | 10° C | 74% | 1017.7 hPa | - | - | - | - |
| 1777928708 | 10° C | 73% | 1017.8 hPa | - | - | - | - |
| 1777927808 | 10.56° C | 72% | 1017.8 hPa | - | - | - | - |
| 1777926908 | 10.56° C | 71% | 1017.7 hPa | - | - | - | - |
| 1777926008 | 10.56° C | 70% | 1017.7 hPa | - | - | - | - |
| 1777925108 | 10.56° C | 69% | 1017.5 hPa | - | - | - | - |
| 1777924208 | 11.11° C | 68% | 1017.4 hPa | - | - | - | - |
| 1777923308 | 11.11° C | 67% | 1017.3 hPa | - | - | - | - |
| 1777922408 | 11.67° C | 65% | 1017 hPa | - | - | - | - |
| 1777921508 | 12.22° C | 63% | 1017 hPa | - | - | - | - |
| 1777920607 | 12.78° C | 62% | 1016.8 hPa | - | - | - | - |
| 1777919707 | 12.78° C | 60% | 1016.7 hPa | - | - | - | - |
| 1777918807 | 13.89° C | 58% | 1016.7 hPa | - | - | - | - |
| 1777917907 | 15.56° C | 56% | 1016.7 hPa | - | - | - | - |
| 1777917007 | 18.89° C | 54% | 1016.9 hPa | - | - | - | - |
| 1777916107 | 20° C | 56% | 1016.7 hPa | - | - | - | - |
| 1777915207 | 16.11° C | 60% | 1016.7 hPa | - | - | - | - |
| 1777914307 | 16.11° C | 61% | 1016.7 hPa | - | - | - | - |
| 1777913407 | 15.56° C | 62% | 1016.8 hPa | - | - | - | - |
| 1777912506 | 15.56° C | 62% | 1016.7 hPa | - | - | - | - |
| 1777911606 | 15° C | 63% | 1016.7 hPa | - | - | - | - |
* Rain since midnight (hover to see other rain measurements)
** Current wind speed in m/s (hover to see current wind gust speed)